sensor_id;sensor_type;location;lat;lon;timestamp;temperature;humidity
6078;DHT22;3067;49.470;10.394;2024-01-30T00:02:13;1.70;67.00
6078;DHT22;3067;49.470;10.394;2024-01-30T00:04:40;1.70;67.30
6078;DHT22;3067;49.470;10.394;2024-01-30T00:07:07;1.70;67.40
6078;DHT22;3067;49.470;10.394;2024-01-30T00:09:35;1.70;67.30
6078;DHT22;3067;49.470;10.394;2024-01-30T00:12:03;1.70;67.20
6078;DHT22;3067;49.470;10.394;2024-01-30T00:14:30;1.70;67.10
6078;DHT22;3067;49.470;10.394;2024-01-30T00:16:57;1.70;67.10
6078;DHT22;3067;49.470;10.394;2024-01-30T00:19:24;1.60;67.20
6078;DHT22;3067;49.470;10.394;2024-01-30T00:21:51;1.60;67.10
6078;DHT22;3067;49.470;10.394;2024-01-30T00:24:18;1.60;67.20
6078;DHT22;3067;49.470;10.394;2024-01-30T00:26:47;1.50;67.50
6078;DHT22;3067;49.470;10.394;2024-01-30T00:29:14;1.50;68.00
6078;DHT22;3067;49.470;10.394;2024-01-30T00:31:45;1.60;68.10
6078;DHT22;3067;49.470;10.394;2024-01-30T00:34:12;1.50;68.00
6078;DHT22;3067;49.470;10.394;2024-01-30T00:36:39;1.40;68.10
6078;DHT22;3067;49.470;10.394;2024-01-30T00:39:06;1.30;68.30
6078;DHT22;3067;49.470;10.394;2024-01-30T00:41:34;1.20;68.30
6078;DHT22;3067;49.470;10.394;2024-01-30T00:44:03;1.20;68.50
6078;DHT22;3067;49.470;10.394;2024-01-30T00:46:30;1.30;68.60
6078;DHT22;3067;49.470;10.394;2024-01-30T00:48:57;1.30;68.30
6078;DHT22;3067;49.470;10.394;2024-01-30T00:51:24;1.30;68.10
6078;DHT22;3067;49.470;10.394;2024-01-30T00:53:52;1.40;68.10
6078;DHT22;3067;49.470;10.394;2024-01-30T00:56:19;1.40;68.10
6078;DHT22;3067;49.470;10.394;2024-01-30T00:58:46;1.40;68.00
6078;DHT22;3067;49.470;10.394;2024-01-30T01:01:15;1.40;67.90
6078;DHT22;3067;49.470;10.394;2024-01-30T01:03:42;1.40;68.10
6078;DHT22;3067;49.470;10.394;2024-01-30T01:06:09;1.40;68.20
6078;DHT22;3067;49.470;10.394;2024-01-30T01:08:36;1.40;68.30
6078;DHT22;3067;49.470;10.394;2024-01-30T01:11:03;1.40;68.50
6078;DHT22;3067;49.470;10.394;2024-01-30T01:13:30;1.10;69.00
6078;DHT22;3067;49.470;10.394;2024-01-30T01:15:57;1.10;69.40
6078;DHT22;3067;49.470;10.394;2024-01-30T01:18:26;1.00;69.30
6078;DHT22;3067;49.470;10.394;2024-01-30T01:20:53;1.10;69.30
6078;DHT22;3067;49.470;10.394;2024-01-30T01:23:20;1.10;69.10
6078;DHT22;3067;49.470;10.394;2024-01-30T01:25:47;1.10;68.70
6078;DHT22;3067;49.470;10.394;2024-01-30T01:28:14;1.10;68.70
6078;DHT22;3067;49.470;10.394;2024-01-30T01:30:41;1.00;68.80
6078;DHT22;3067;49.470;10.394;2024-01-30T01:33:09;1.00;69.10
6078;DHT22;3067;49.470;10.394;2024-01-30T01:35:37;1.00;69.10
6078;DHT22;3067;49.470;10.394;2024-01-30T01:38:05;1.00;69.40
6078;DHT22;3067;49.470;10.394;2024-01-30T01:40:32;0.90;69.90
6078;DHT22;3067;49.470;10.394;2024-01-30T01:43:03;1.00;70.10
6078;DHT22;3067;49.470;10.394;2024-01-30T01:45:30;1.00;70.20
6078;DHT22;3067;49.470;10.394;2024-01-30T01:47:57;1.00;70.10
6078;DHT22;3067;49.470;10.394;2024-01-30T01:50:24;1.10;69.90
6078;DHT22;3067;49.470;10.394;2024-01-30T01:52:54;1.10;69.70
6078;DHT22;3067;49.470;10.394;2024-01-30T01:55:21;1.10;69.50
6078;DHT22;3067;49.470;10.394;2024-01-30T01:57:50;1.10;69.50
6078;DHT22;3067;49.470;10.394;2024-01-30T02:00:20;1.10;69.20
6078;DHT22;3067;49.470;10.394;2024-01-30T02:02:47;1.20;69.00
6078;DHT22;3067;49.470;10.394;2024-01-30T02:05:15;1.20;68.70
6078;DHT22;3067;49.470;10.394;2024-01-30T02:07:43;1.20;68.40
6078;DHT22;3067;49.470;10.394;2024-01-30T02:10:12;1.20;68.30
6078;DHT22;3067;49.470;10.394;2024-01-30T02:12:39;1.20;68.40
6078;DHT22;3067;49.470;10.394;2024-01-30T02:15:07;1.20;68.40
6078;DHT22;3067;49.470;10.394;2024-01-30T02:17:34;1.20;68.10
6078;DHT22;3067;49.470;10.394;2024-01-30T02:20:01;1.20;68.00
6078;DHT22;3067;49.470;10.394;2024-01-30T02:22:31;1.20;68.20
6078;DHT22;3067;49.470;10.394;2024-01-30T02:24:59;1.20;68.20
6078;DHT22;3067;49.470;10.394;2024-01-30T02:27:26;1.20;68.00
6078;DHT22;3067;49.470;10.394;2024-01-30T02:29:53;1.10;68.10
6078;DHT22;3067;49.470;10.394;2024-01-30T02:32:20;1.10;68.10
6078;DHT22;3067;49.470;10.394;2024-01-30T02:34:47;1.10;68.10
6078;DHT22;3067;49.470;10.394;2024-01-30T02:37:14;1.10;68.00
6078;DHT22;3067;49.470;10.394;2024-01-30T02:39:43;1.10;68.00
6078;DHT22;3067;49.470;10.394;2024-01-30T02:42:10;1.10;68.00
6078;DHT22;3067;49.470;10.394;2024-01-30T02:44:37;1.10;67.80
6078;DHT22;3067;49.470;10.394;2024-01-30T02:47:04;1.10;67.80
6078;DHT22;3067;49.470;10.394;2024-01-30T02:49:31;1.10;67.80
6078;DHT22;3067;49.470;10.394;2024-01-30T02:51:58;1.10;67.70
6078;DHT22;3067;49.470;10.394;2024-01-30T02:54:25;1.10;67.50
6078;DHT22;3067;49.470;10.394;2024-01-30T02:56:54;1.10;67.60
6078;DHT22;3067;49.470;10.394;2024-01-30T02:59:21;1.10;67.60
6078;DHT22;3067;49.470;10.394;2024-01-30T03:01:48;1.10;67.70
6078;DHT22;3067;49.470;10.394;2024-01-30T03:04:15;1.10;67.70
6078;DHT22;3067;49.470;10.394;2024-01-30T03:06:45;1.10;67.60
6078;DHT22;3067;49.470;10.394;2024-01-30T03:09:12;1.10;67.50
6078;DHT22;3067;49.470;10.394;2024-01-30T03:11:40;1.00;67.50
6078;DHT22;3067;49.470;10.394;2024-01-30T03:14:08;1.00;67.50
6078;DHT22;3067;49.470;10.394;2024-01-30T03:16:37;1.00;67.80
6078;DHT22;3067;49.470;10.394;2024-01-30T03:19:05;1.00;67.80
6078;DHT22;3067;49.470;10.394;2024-01-30T03:21:33;1.00;67.70
6078;DHT22;3067;49.470;10.394;2024-01-30T03:24:00;1.00;67.80
6078;DHT22;3067;49.470;10.394;2024-01-30T03:26:27;1.00;67.70
6078;DHT22;3067;49.470;10.394;2024-01-30T03:28:54;1.00;67.50
6078;DHT22;3067;49.470;10.394;2024-01-30T03:31:23;1.00;67.60
6078;DHT22;3067;49.470;10.394;2024-01-30T03:33:50;0.90;67.70
6078;DHT22;3067;49.470;10.394;2024-01-30T03:36:17;0.90;68.10
6078;DHT22;3067;49.470;10.394;2024-01-30T03:38:44;1.00;68.20
6078;DHT22;3067;49.470;10.394;2024-01-30T03:41:11;1.00;68.20
6078;DHT22;3067;49.470;10.394;2024-01-30T03:43:38;1.00;68.00
6078;DHT22;3067;49.470;10.394;2024-01-30T03:46:05;1.00;67.90
6078;DHT22;3067;49.470;10.394;2024-01-30T03:48:33;1.00;67.80
6078;DHT22;3067;49.470;10.394;2024-01-30T03:51:00;1.00;67.80
6078;DHT22;3067;49.470;10.394;2024-01-30T03:53:28;1.00;67.90
6078;DHT22;3067;49.470;10.394;2024-01-30T03:55:55;1.00;67.90
6078;DHT22;3067;49.470;10.394;2024-01-30T03:58:22;1.00;67.80
6078;DHT22;3067;49.470;10.394;2024-01-30T04:00:49;0.90;67.80
6078;DHT22;3067;49.470;10.394;2024-01-30T04:03:16;0.90;67.90
6078;DHT22;3067;49.470;10.394;2024-01-30T04:05:45;1.00;68.00
6078;DHT22;3067;49.470;10.394;2024-01-30T04:08:12;0.90;68.00
6078;DHT22;3067;49.470;10.394;2024-01-30T04:10:39;0.90;67.90
6078;DHT22;3067;49.470;10.394;2024-01-30T04:13:06;0.90;67.80
6078;DHT22;3067;49.470;10.394;2024-01-30T04:15:33;0.90;67.80
6078;DHT22;3067;49.470;10.394;2024-01-30T04:18:01;0.90;67.90
6078;DHT22;3067;49.470;10.394;2024-01-30T04:20:28;0.90;68.00
6078;DHT22;3067;49.470;10.394;2024-01-30T04:22:57;1.00;68.00
6078;DHT22;3067;49.470;10.394;2024-01-30T04:25:24;1.00;68.10
6078;DHT22;3067;49.470;10.394;2024-01-30T04:27:51;1.00;68.00
6078;DHT22;3067;49.470;10.394;2024-01-30T04:30:18;1.00;67.90
6078;DHT22;3067;49.470;10.394;2024-01-30T04:32:45;1.00;67.90
6078;DHT22;3067;49.470;10.394;2024-01-30T04:35:12;1.00;67.70
6078;DHT22;3067;49.470;10.394;2024-01-30T04:37:39;1.00;67.60
6078;DHT22;3067;49.470;10.394;2024-01-30T04:40:08;1.00;67.50
6078;DHT22;3067;49.470;10.394;2024-01-30T04:42:36;1.00;67.40
6078;DHT22;3067;49.470;10.394;2024-01-30T04:45:03;1.00;67.40
6078;DHT22;3067;49.470;10.394;2024-01-30T04:47:30;1.00;67.40
6078;DHT22;3067;49.470;10.394;2024-01-30T04:49:57;1.00;67.30
6078;DHT22;3067;49.470;10.394;2024-01-30T04:52:24;1.00;67.20
6078;DHT22;3067;49.470;10.394;2024-01-30T04:54:52;1.00;67.20
6078;DHT22;3067;49.470;10.394;2024-01-30T04:57:20;1.00;67.20
6078;DHT22;3067;49.470;10.394;2024-01-30T04:59:47;1.00;67.10
6078;DHT22;3067;49.470;10.394;2024-01-30T05:02:15;1.00;67.10
6078;DHT22;3067;49.470;10.394;2024-01-30T05:04:42;0.90;67.10
6078;DHT22;3067;49.470;10.394;2024-01-30T05:07:09;0.90;67.20
6078;DHT22;3067;49.470;10.394;2024-01-30T05:09:36;0.80;67.00
6078;DHT22;3067;49.470;10.394;2024-01-30T05:12:03;0.80;67.10
6078;DHT22;3067;49.470;10.394;2024-01-30T05:14:32;0.80;67.20
6078;DHT22;3067;49.470;10.394;2024-01-30T05:16:59;0.80;67.20
6078;DHT22;3067;49.470;10.394;2024-01-30T05:19:28;0.80;67.30
6078;DHT22;3067;49.470;10.394;2024-01-30T05:21:55;0.80;67.40
6078;DHT22;3067;49.470;10.394;2024-01-30T05:24:22;0.80;67.40
6078;DHT22;3067;49.470;10.394;2024-01-30T05:26:49;0.80;67.50
6078;DHT22;3067;49.470;10.394;2024-01-30T05:29:16;0.80;67.50
6078;DHT22;3067;49.470;10.394;2024-01-30T05:31:45;0.80;67.40
6078;DHT22;3067;49.470;10.394;2024-01-30T05:34:12;0.80;67.40
6078;DHT22;3067;49.470;10.394;2024-01-30T05:36:39;0.80;67.50
6078;DHT22;3067;49.470;10.394;2024-01-30T05:39:06;0.80;67.50
6078;DHT22;3067;49.470;10.394;2024-01-30T05:41:33;0.80;67.60
6078;DHT22;3067;49.470;10.394;2024-01-30T05:44:01;0.80;67.80
6078;DHT22;3067;49.470;10.394;2024-01-30T05:46:28;0.70;67.90
6078;DHT22;3067;49.470;10.394;2024-01-30T05:48:56;0.70;68.00
6078;DHT22;3067;49.470;10.394;2024-01-30T05:51:23;0.70;68.10
6078;DHT22;3067;49.470;10.394;2024-01-30T05:53:50;0.70;68.20
6078;DHT22;3067;49.470;10.394;2024-01-30T05:56:17;0.70;68.30
6078;DHT22;3067;49.470;10.394;2024-01-30T05:58:44;0.70;68.30
6078;DHT22;3067;49.470;10.394;2024-01-30T06:01:12;0.70;68.40
6078;DHT22;3067;49.470;10.394;2024-01-30T06:03:39;0.70;68.40
6078;DHT22;3067;49.470;10.394;2024-01-30T06:06:07;0.70;68.30
6078;DHT22;3067;49.470;10.394;2024-01-30T06:08:34;0.80;68.30
6078;DHT22;3067;49.470;10.394;2024-01-30T06:11:02;0.80;68.30
6078;DHT22;3067;49.470;10.394;2024-01-30T06:13:29;0.80;68.30
6078;DHT22;3067;49.470;10.394;2024-01-30T06:15:57;0.80;68.20
6078;DHT22;3067;49.470;10.394;2024-01-30T06:18:24;0.80;68.20
6078;DHT22;3067;49.470;10.394;2024-01-30T06:20:52;0.80;68.20
6078;DHT22;3067;49.470;10.394;2024-01-30T06:23:21;0.80;68.20
6078;DHT22;3067;49.470;10.394;2024-01-30T06:25:48;0.80;68.20
6078;DHT22;3067;49.470;10.394;2024-01-30T06:28:15;0.80;68.20
6078;DHT22;3067;49.470;10.394;2024-01-30T06:30:42;0.80;68.30
6078;DHT22;3067;49.470;10.394;2024-01-30T06:33:11;0.80;68.40
6078;DHT22;3067;49.470;10.394;2024-01-30T06:35:40;0.80;68.40
6078;DHT22;3067;49.470;10.394;2024-01-30T06:38:07;0.80;68.40
6078;DHT22;3067;49.470;10.394;2024-01-30T06:40:36;0.80;68.50
6078;DHT22;3067;49.470;10.394;2024-01-30T06:43:04;0.80;68.50
6078;DHT22;3067;49.470;10.394;2024-01-30T06:45:31;0.80;68.50
6078;DHT22;3067;49.470;10.394;2024-01-30T06:47:58;0.90;68.60
6078;DHT22;3067;49.470;10.394;2024-01-30T06:50:25;1.00;68.60
6078;DHT22;3067;49.470;10.394;2024-01-30T06:52:52;1.00;68.70
6078;DHT22;3067;49.470;10.394;2024-01-30T06:55:20;1.00;68.80
6078;DHT22;3067;49.470;10.394;2024-01-30T06:57:48;1.00;68.90
6078;DHT22;3067;49.470;10.394;2024-01-30T07:00:16;1.00;68.90
6078;DHT22;3067;49.470;10.394;2024-01-30T07:02:45;1.00;68.90
6078;DHT22;3067;49.470;10.394;2024-01-30T07:05:12;1.00;69.00
6078;DHT22;3067;49.470;10.394;2024-01-30T07:07:39;1.00;69.00
6078;DHT22;3067;49.470;10.394;2024-01-30T07:10:07;1.10;69.00
6078;DHT22;3067;49.470;10.394;2024-01-30T07:12:34;1.10;69.20
6078;DHT22;3067;49.470;10.394;2024-01-30T07:15:04;1.10;69.20
6078;DHT22;3067;49.470;10.394;2024-01-30T07:17:33;1.10;69.30
6078;DHT22;3067;49.470;10.394;2024-01-30T07:20:00;1.10;69.50
6078;DHT22;3067;49.470;10.394;2024-01-30T07:22:29;1.20;69.50
6078;DHT22;3067;49.470;10.394;2024-01-30T07:24:56;1.20;69.50
6078;DHT22;3067;49.470;10.394;2024-01-30T07:27:23;1.30;69.50
6078;DHT22;3067;49.470;10.394;2024-01-30T07:29:51;1.30;69.50
6078;DHT22;3067;49.470;10.394;2024-01-30T07:32:19;1.40;69.50
6078;DHT22;3067;49.470;10.394;2024-01-30T07:34:46;1.40;69.50
6078;DHT22;3067;49.470;10.394;2024-01-30T07:37:13;1.50;69.60
6078;DHT22;3067;49.470;10.394;2024-01-30T07:39:41;1.50;69.60
6078;DHT22;3067;49.470;10.394;2024-01-30T07:42:09;1.60;69.50
6078;DHT22;3067;49.470;10.394;2024-01-30T07:44:36;1.60;69.40
6078;DHT22;3067;49.470;10.394;2024-01-30T07:47:03;1.60;69.40
6078;DHT22;3067;49.470;10.394;2024-01-30T07:49:34;1.60;69.30
6078;DHT22;3067;49.470;10.394;2024-01-30T07:52:01;1.60;69.30
6078;DHT22;3067;49.470;10.394;2024-01-30T07:54:31;1.70;69.30
6078;DHT22;3067;49.470;10.394;2024-01-30T07:56:59;1.70;69.30
6078;DHT22;3067;49.470;10.394;2024-01-30T07:59:26;1.80;69.40
6078;DHT22;3067;49.470;10.394;2024-01-30T08:01:53;1.80;69.30
6078;DHT22;3067;49.470;10.394;2024-01-30T08:04:20;1.90;69.20
6078;DHT22;3067;49.470;10.394;2024-01-30T08:06:49;1.90;69.10
6078;DHT22;3067;49.470;10.394;2024-01-30T08:09:16;1.90;69.10
6078;DHT22;3067;49.470;10.394;2024-01-30T08:11:43;2.00;69.20
6078;DHT22;3067;49.470;10.394;2024-01-30T08:14:10;2.00;69.30
6078;DHT22;3067;49.470;10.394;2024-01-30T08:16:39;2.10;69.30
6078;DHT22;3067;49.470;10.394;2024-01-30T08:19:06;2.20;69.50
6078;DHT22;3067;49.470;10.394;2024-01-30T08:21:33;2.20;69.10
6078;DHT22;3067;49.470;10.394;2024-01-30T08:24:04;2.30;69.00
6078;DHT22;3067;49.470;10.394;2024-01-30T08:26:31;2.40;69.00
6078;DHT22;3067;49.470;10.394;2024-01-30T08:28:58;2.40;68.80
6078;DHT22;3067;49.470;10.394;2024-01-30T08:31:26;2.50;68.60
6078;DHT22;3067;49.470;10.394;2024-01-30T08:33:53;2.50;68.50
6078;DHT22;3067;49.470;10.394;2024-01-30T08:36:20;2.50;68.30
6078;DHT22;3067;49.470;10.394;2024-01-30T08:38:47;2.60;68.30
6078;DHT22;3067;49.470;10.394;2024-01-30T08:41:16;2.60;68.30
6078;DHT22;3067;49.470;10.394;2024-01-30T08:43:43;2.60;68.20
6078;DHT22;3067;49.470;10.394;2024-01-30T08:46:11;2.50;68.30
6078;DHT22;3067;49.470;10.394;2024-01-30T08:48:38;2.60;68.50
6078;DHT22;3067;49.470;10.394;2024-01-30T08:51:05;2.70;68.50
6078;DHT22;3067;49.470;10.394;2024-01-30T08:53:34;2.70;68.40
6078;DHT22;3067;49.470;10.394;2024-01-30T08:56:02;2.70;68.40
6078;DHT22;3067;49.470;10.394;2024-01-30T08:58:31;2.70;68.40
6078;DHT22;3067;49.470;10.394;2024-01-30T09:00:58;2.70;68.40
6078;DHT22;3067;49.470;10.394;2024-01-30T09:03:25;2.80;68.40
6078;DHT22;3067;49.470;10.394;2024-01-30T09:05:53;2.80;68.20
6078;DHT22;3067;49.470;10.394;2024-01-30T09:08:20;2.80;68.30
6078;DHT22;3067;49.470;10.394;2024-01-30T09:10:47;2.80;68.20
6078;DHT22;3067;49.470;10.394;2024-01-30T09:13:15;2.80;68.30
6078;DHT22;3067;49.470;10.394;2024-01-30T09:15:44;2.80;68.50
6078;DHT22;3067;49.470;10.394;2024-01-30T09:18:11;2.90;68.20
6078;DHT22;3067;49.470;10.394;2024-01-30T09:20:38;3.00;67.90
6078;DHT22;3067;49.470;10.394;2024-01-30T09:23:05;3.00;67.80
6078;DHT22;3067;49.470;10.394;2024-01-30T09:25:32;3.00;67.50
6078;DHT22;3067;49.470;10.394;2024-01-30T09:28:00;3.00;67.40
6078;DHT22;3067;49.470;10.394;2024-01-30T09:30:27;3.00;67.50
6078;DHT22;3067;49.470;10.394;2024-01-30T09:32:56;3.10;67.50
6078;DHT22;3067;49.470;10.394;2024-01-30T09:35:23;3.10;67.60
6078;DHT22;3067;49.470;10.394;2024-01-30T09:37:50;3.10;67.40
6078;DHT22;3067;49.470;10.394;2024-01-30T09:40:18;3.20;67.40
6078;DHT22;3067;49.470;10.394;2024-01-30T09:42:47;3.30;67.50
6078;DHT22;3067;49.470;10.394;2024-01-30T09:45:15;3.40;67.30
6078;DHT22;3067;49.470;10.394;2024-01-30T09:47:43;3.50;67.10
6078;DHT22;3067;49.470;10.394;2024-01-30T09:50:12;3.60;67.00
6078;DHT22;3067;49.470;10.394;2024-01-30T09:52:40;3.70;67.00
6078;DHT22;3067;49.470;10.394;2024-01-30T09:55:08;3.70;67.10
6078;DHT22;3067;49.470;10.394;2024-01-30T09:57:35;3.90;67.00
6078;DHT22;3067;49.470;10.394;2024-01-30T10:00:03;3.90;67.20
6078;DHT22;3067;49.470;10.394;2024-01-30T10:02:31;4.00;66.90
6078;DHT22;3067;49.470;10.394;2024-01-30T10:04:59;4.10;66.80
6078;DHT22;3067;49.470;10.394;2024-01-30T10:07:28;4.10;66.50
6078;DHT22;3067;49.470;10.394;2024-01-30T10:09:55;4.20;66.40
6078;DHT22;3067;49.470;10.394;2024-01-30T10:12:23;4.20;66.20
6078;DHT22;3067;49.470;10.394;2024-01-30T10:14:52;4.20;66.10
6078;DHT22;3067;49.470;10.394;2024-01-30T10:17:19;4.30;66.30
6078;DHT22;3067;49.470;10.394;2024-01-30T10:19:47;4.50;66.40
6078;DHT22;3067;49.470;10.394;2024-01-30T10:22:14;4.50;66.50
6078;DHT22;3067;49.470;10.394;2024-01-30T10:24:43;4.70;66.30
6078;DHT22;3067;49.470;10.394;2024-01-30T10:27:11;4.70;66.20
6078;DHT22;3067;49.470;10.394;2024-01-30T10:29:38;4.90;65.80
6078;DHT22;3067;49.470;10.394;2024-01-30T10:32:05;5.00;65.50
6078;DHT22;3067;49.470;10.394;2024-01-30T10:34:33;5.10;65.20
6078;DHT22;3067;49.470;10.394;2024-01-30T10:37:06;5.20;64.70
6078;DHT22;3067;49.470;10.394;2024-01-30T10:39:38;5.30;64.50
6078;DHT22;3067;49.470;10.394;2024-01-30T10:42:11;5.30;64.50
6078;DHT22;3067;49.470;10.394;2024-01-30T10:44:44;5.30;64.60
6078;DHT22;3067;49.470;10.394;2024-01-30T10:47:13;5.30;64.80
6078;DHT22;3067;49.470;10.394;2024-01-30T10:49:43;5.50;65.40
6078;DHT22;3067;49.470;10.394;2024-01-30T10:52:13;5.50;65.90
6078;DHT22;3067;49.470;10.394;2024-01-30T10:54:44;5.60;66.20
6078;DHT22;3067;49.470;10.394;2024-01-30T10:57:15;5.70;66.10
6078;DHT22;3067;49.470;10.394;2024-01-30T10:59:43;5.90;65.60
6078;DHT22;3067;49.470;10.394;2024-01-30T11:02:11;5.90;65.10
6078;DHT22;3067;49.470;10.394;2024-01-30T11:04:40;6.00;65.10
6078;DHT22;3067;49.470;10.394;2024-01-30T11:07:17;6.00;65.40
6078;DHT22;3067;49.470;10.394;2024-01-30T11:09:50;6.10;65.00
6078;DHT22;3067;49.470;10.394;2024-01-30T11:12:21;6.10;65.00
6078;DHT22;3067;49.470;10.394;2024-01-30T11:14:49;6.20;64.70
6078;DHT22;3067;49.470;10.394;2024-01-30T11:17:16;6.30;64.70
6078;DHT22;3067;49.470;10.394;2024-01-30T11:19:43;6.30;64.60
6078;DHT22;3067;49.470;10.394;2024-01-30T11:22:11;6.50;64.40
6078;DHT22;3067;49.470;10.394;2024-01-30T11:24:39;6.60;64.20
6078;DHT22;3067;49.470;10.394;2024-01-30T11:27:09;6.70;63.70
6078;DHT22;3067;49.470;10.394;2024-01-30T11:29:37;6.70;63.70
6078;DHT22;3067;49.470;10.394;2024-01-30T11:32:05;6.80;63.60
6078;DHT22;3067;49.470;10.394;2024-01-30T11:34:33;6.90;63.60
6078;DHT22;3067;49.470;10.394;2024-01-30T11:37:04;6.90;63.60
6078;DHT22;3067;49.470;10.394;2024-01-30T11:39:33;7.00;63.70
6078;DHT22;3067;49.470;10.394;2024-01-30T11:42:00;7.10;63.60
6078;DHT22;3067;49.470;10.394;2024-01-30T11:44:29;7.20;63.20
6078;DHT22;3067;49.470;10.394;2024-01-30T11:46:57;7.20;62.40
6078;DHT22;3067;49.470;10.394;2024-01-30T11:49:24;7.20;62.50
6078;DHT22;3067;49.470;10.394;2024-01-30T11:51:52;7.30;62.60
6078;DHT22;3067;49.470;10.394;2024-01-30T11:54:19;7.40;62.60
6078;DHT22;3067;49.470;10.394;2024-01-30T11:56:47;7.50;62.60
6078;DHT22;3067;49.470;10.394;2024-01-30T11:59:14;7.50;62.10
6078;DHT22;3067;49.470;10.394;2024-01-30T12:01:41;7.60;61.70
6078;DHT22;3067;49.470;10.394;2024-01-30T12:04:10;7.70;61.60
6078;DHT22;3067;49.470;10.394;2024-01-30T12:06:37;7.80;61.50
6078;DHT22;3067;49.470;10.394;2024-01-30T12:09:04;8.00;61.40
6078;DHT22;3067;49.470;10.394;2024-01-30T12:11:34;8.00;60.70
6078;DHT22;3067;49.470;10.394;2024-01-30T12:14:10;8.10;60.30
6078;DHT22;3067;49.470;10.394;2024-01-30T12:16:37;8.20;60.50
6078;DHT22;3067;49.470;10.394;2024-01-30T12:19:04;8.30;60.70
6078;DHT22;3067;49.470;10.394;2024-01-30T12:21:33;8.40;60.50
6078;DHT22;3067;49.470;10.394;2024-01-30T12:24:01;8.50;60.40
6078;DHT22;3067;49.470;10.394;2024-01-30T12:26:28;8.60;60.10
6078;DHT22;3067;49.470;10.394;2024-01-30T12:28:56;8.70;60.20
6078;DHT22;3067;49.470;10.394;2024-01-30T12:31:26;8.80;59.50
6078;DHT22;3067;49.470;10.394;2024-01-30T12:33:54;8.90;59.60
6078;DHT22;3067;49.470;10.394;2024-01-30T12:36:21;8.90;59.60
6078;DHT22;3067;49.470;10.394;2024-01-30T12:38:50;9.00;59.70
6078;DHT22;3067;49.470;10.394;2024-01-30T12:41:17;9.00;59.80
6078;DHT22;3067;49.470;10.394;2024-01-30T12:43:45;9.00;59.70
6078;DHT22;3067;49.470;10.394;2024-01-30T12:46:13;9.10;59.70
6078;DHT22;3067;49.470;10.394;2024-01-30T12:48:40;9.20;59.60
6078;DHT22;3067;49.470;10.394;2024-01-30T12:51:07;9.20;59.60
6078;DHT22;3067;49.470;10.394;2024-01-30T12:53:34;9.20;59.80
6078;DHT22;3067;49.470;10.394;2024-01-30T12:56:03;9.20;59.90
6078;DHT22;3067;49.470;10.394;2024-01-30T12:58:30;9.20;60.20
6078;DHT22;3067;49.470;10.394;2024-01-30T13:00:57;9.20;59.70
6078;DHT22;3067;49.470;10.394;2024-01-30T13:03:24;9.20;59.60
6078;DHT22;3067;49.470;10.394;2024-01-30T13:05:51;9.30;60.00
6078;DHT22;3067;49.470;10.394;2024-01-30T13:08:19;9.40;60.10
6078;DHT22;3067;49.470;10.394;2024-01-30T13:10:46;9.40;60.10
6078;DHT22;3067;49.470;10.394;2024-01-30T13:13:14;9.40;60.10
6078;DHT22;3067;49.470;10.394;2024-01-30T13:15:41;9.40;60.10
6078;DHT22;3067;49.470;10.394;2024-01-30T13:18:08;9.50;59.90
6078;DHT22;3067;49.470;10.394;2024-01-30T13:20:35;9.70;59.60
6078;DHT22;3067;49.470;10.394;2024-01-30T13:23:03;9.80;59.30
6078;DHT22;3067;49.470;10.394;2024-01-30T13:25:30;10.00;58.90
6078;DHT22;3067;49.470;10.394;2024-01-30T13:27:57;10.10;58.60
6078;DHT22;3067;49.470;10.394;2024-01-30T13:30:25;10.30;59.00
6078;DHT22;3067;49.470;10.394;2024-01-30T13:32:52;10.60;58.40
6078;DHT22;3067;49.470;10.394;2024-01-30T13:35:20;10.90;58.10
6078;DHT22;3067;49.470;10.394;2024-01-30T13:37:47;11.30;57.60
6078;DHT22;3067;49.470;10.394;2024-01-30T13:40:14;11.70;56.20
6078;DHT22;3067;49.470;10.394;2024-01-30T13:42:42;12.00;55.40
6078;DHT22;3067;49.470;10.394;2024-01-30T13:45:09;12.40;53.80
6078;DHT22;3067;49.470;10.394;2024-01-30T13:47:38;12.70;52.40
6078;DHT22;3067;49.470;10.394;2024-01-30T13:50:05;13.00;50.90
6078;DHT22;3067;49.470;10.394;2024-01-30T13:52:33;13.10;50.50
6078;DHT22;3067;49.470;10.394;2024-01-30T13:55:00;13.10;50.50
6078;DHT22;3067;49.470;10.394;2024-01-30T13:57:28;13.20;50.30
6078;DHT22;3067;49.470;10.394;2024-01-30T13:59:58;13.20;49.80
6078;DHT22;3067;49.470;10.394;2024-01-30T14:02:25;13.00;49.60
6078;DHT22;3067;49.470;10.394;2024-01-30T14:04:54;12.80;50.40
6078;DHT22;3067;49.470;10.394;2024-01-30T14:07:21;12.50;51.20
6078;DHT22;3067;49.470;10.394;2024-01-30T14:09:48;12.00;52.00
6078;DHT22;3067;49.470;10.394;2024-01-30T14:12:16;11.80;52.70
6078;DHT22;3067;49.470;10.394;2024-01-30T14:14:43;11.50;53.40
6078;DHT22;3067;49.470;10.394;2024-01-30T14:17:10;11.40;54.00
6078;DHT22;3067;49.470;10.394;2024-01-30T14:19:37;11.20;54.40
6078;DHT22;3067;49.470;10.394;2024-01-30T14:22:06;11.00;55.30
6078;DHT22;3067;49.470;10.394;2024-01-30T14:24:33;10.80;56.00
6078;DHT22;3067;49.470;10.394;2024-01-30T14:27:00;10.70;56.40
6078;DHT22;3067;49.470;10.394;2024-01-30T14:29:27;10.50;56.80
6078;DHT22;3067;49.470;10.394;2024-01-30T14:31:54;10.40;57.20
6078;DHT22;3067;49.470;10.394;2024-01-30T14:34:22;10.30;57.70
6078;DHT22;3067;49.470;10.394;2024-01-30T14:36:49;10.30;58.10
6078;DHT22;3067;49.470;10.394;2024-01-30T14:39:18;10.10;58.90
6078;DHT22;3067;49.470;10.394;2024-01-30T14:41:45;10.00;59.40
6078;DHT22;3067;49.470;10.394;2024-01-30T14:44:12;10.00;59.50
6078;DHT22;3067;49.470;10.394;2024-01-30T14:46:39;10.00;59.00
6078;DHT22;3067;49.470;10.394;2024-01-30T14:49:07;10.10;58.60
6078;DHT22;3067;49.470;10.394;2024-01-30T14:51:35;10.00;58.40
6078;DHT22;3067;49.470;10.394;2024-01-30T14:54:05;10.00;58.50
6078;DHT22;3067;49.470;10.394;2024-01-30T14:56:33;10.00;58.60
6078;DHT22;3067;49.470;10.394;2024-01-30T14:59:01;10.00;58.70
6078;DHT22;3067;49.470;10.394;2024-01-30T15:01:28;9.90;58.90
6078;DHT22;3067;49.470;10.394;2024-01-30T15:03:54;9.80;59.20
6078;DHT22;3067;49.470;10.394;2024-01-30T15:06:21;9.70;59.20
6078;DHT22;3067;49.470;10.394;2024-01-30T15:08:50;9.70;59.40
6078;DHT22;3067;49.470;10.394;2024-01-30T15:11:17;9.50;60.10
6078;DHT22;3067;49.470;10.394;2024-01-30T15:13:46;9.40;60.30
6078;DHT22;3067;49.470;10.394;2024-01-30T15:16:13;9.40;60.50
6078;DHT22;3067;49.470;10.394;2024-01-30T15:18:40;9.40;60.60
6078;DHT22;3067;49.470;10.394;2024-01-30T15:21:07;9.20;60.70
6078;DHT22;3067;49.470;10.394;2024-01-30T15:23:35;9.20;60.90
6078;DHT22;3067;49.470;10.394;2024-01-30T15:26:02;9.10;60.90
6078;DHT22;3067;49.470;10.394;2024-01-30T15:28:36;9.00;61.10
6078;DHT22;3067;49.470;10.394;2024-01-30T15:31:06;9.00;61.40
6078;DHT22;3067;49.470;10.394;2024-01-30T15:33:33;8.90;61.70
6078;DHT22;3067;49.470;10.394;2024-01-30T15:36:01;8.80;61.80
6078;DHT22;3067;49.470;10.394;2024-01-30T15:38:29;8.80;61.90
6078;DHT22;3067;49.470;10.394;2024-01-30T15:40:56;8.60;62.10
6078;DHT22;3067;49.470;10.394;2024-01-30T15:43:23;8.60;62.20
6078;DHT22;3067;49.470;10.394;2024-01-30T15:45:50;8.60;62.30
6078;DHT22;3067;49.470;10.394;2024-01-30T15:48:19;8.60;62.50
6078;DHT22;3067;49.470;10.394;2024-01-30T15:50:46;8.50;62.70
6078;DHT22;3067;49.470;10.394;2024-01-30T15:53:13;8.50;62.70
6078;DHT22;3067;49.470;10.394;2024-01-30T15:55:40;8.40;63.00
6078;DHT22;3067;49.470;10.394;2024-01-30T15:58:08;8.40;63.10
6078;DHT22;3067;49.470;10.394;2024-01-30T16:00:35;8.40;63.10
6078;DHT22;3067;49.470;10.394;2024-01-30T16:03:02;8.30;63.20